createdAt,value
2022-10-26T00:01:07.000Z,1017.18
2022-10-26T00:01:51.000Z,1017.14
2022-10-26T00:02:53.000Z,1017.09
2022-10-26T00:03:54.000Z,1017.06
2022-10-26T00:04:52.000Z,1017.13
2022-10-26T00:05:51.000Z,1017.17
2022-10-26T00:06:51.000Z,1017.27
2022-10-26T00:07:52.000Z,1017.34
2022-10-26T00:08:52.000Z,1017.40
2022-10-26T00:09:52.000Z,1017.42
2022-10-26T00:10:55.000Z,1017.43
2022-10-26T00:11:52.000Z,1017.44
2022-10-26T00:12:52.000Z,1017.49
2022-10-26T00:13:51.000Z,1017.52
2022-10-26T00:14:52.000Z,1017.60
2022-10-26T00:15:52.000Z,1017.63
2022-10-26T00:16:51.000Z,1017.65
2022-10-26T00:17:51.000Z,1017.68
2022-10-26T00:18:52.000Z,1017.63
2022-10-26T00:19:52.000Z,1017.56
2022-10-26T00:20:51.000Z,1017.48
2022-10-26T00:21:52.000Z,1017.41
2022-10-26T00:22:51.000Z,1017.41
2022-10-26T00:23:51.000Z,1017.45
2022-10-26T00:24:51.000Z,1017.49
2022-10-26T00:25:52.000Z,1017.51
2022-10-26T00:26:51.000Z,1017.51
2022-10-26T00:27:51.000Z,1017.48
2022-10-26T00:28:53.000Z,1017.43
2022-10-26T00:29:51.000Z,1017.38
2022-10-26T00:30:52.000Z,1017.38
2022-10-26T00:31:51.000Z,1017.42
2022-10-26T00:32:51.000Z,1017.39
2022-10-26T00:33:53.000Z,1017.42
2022-10-26T00:34:52.000Z,1017.40
2022-10-26T00:35:52.000Z,1017.40
2022-10-26T00:36:51.000Z,1017.43
2022-10-26T00:37:54.000Z,1017.41
2022-10-26T00:38:54.000Z,1017.39
2022-10-26T00:39:51.000Z,1017.40
2022-10-26T00:40:51.000Z,1017.42
2022-10-26T00:41:52.000Z,1017.38
2022-10-26T00:42:51.000Z,1017.37
2022-10-26T00:43:52.000Z,1017.32
2022-10-26T00:44:58.000Z,1017.32
2022-10-26T00:45:54.000Z,1017.31
2022-10-26T00:46:51.000Z,1017.30
2022-10-26T00:47:57.000Z,1017.27
2022-10-26T00:48:56.000Z,1017.25
2022-10-26T00:49:54.000Z,1017.25
2022-10-26T00:50:54.000Z,1017.27
2022-10-26T00:51:52.000Z,1017.26
2022-10-26T00:52:53.000Z,1017.27
2022-10-26T00:53:54.000Z,1017.30
2022-10-26T00:54:52.000Z,1017.31
2022-10-26T00:55:53.000Z,1017.28
2022-10-26T00:56:53.000Z,1017.26
2022-10-26T00:57:52.000Z,1017.31
2022-10-26T00:58:53.000Z,1017.28
2022-10-26T00:59:55.000Z,1017.30
2022-10-26T01:00:52.000Z,1017.29
2022-10-26T01:01:52.000Z,1017.35
2022-10-26T01:02:55.000Z,1017.30
2022-10-26T01:03:52.000Z,1017.28
2022-10-26T01:04:52.000Z,1017.22
2022-10-26T01:05:55.000Z,1017.21
2022-10-26T01:06:52.000Z,1017.21
2022-10-26T01:07:52.000Z,1017.27
2022-10-26T01:08:52.000Z,1017.29
2022-10-26T01:09:53.000Z,1017.31
2022-10-26T01:10:52.000Z,1017.32
2022-10-26T01:11:51.000Z,1017.28
2022-10-26T01:12:54.000Z,1017.32
2022-10-26T01:13:54.000Z,1017.29
2022-10-26T01:14:52.000Z,1017.30
2022-10-26T01:16:17.000Z,1017.30
2022-10-26T01:17:02.000Z,1017.34
2022-10-26T01:18:05.000Z,1017.30
2022-10-26T01:19:02.000Z,1017.28
2022-10-26T01:20:12.000Z,1017.32
2022-10-26T01:21:12.000Z,1017.30
2022-10-26T01:22:10.000Z,1017.29
2022-10-26T01:23:12.000Z,1017.30
2022-10-26T01:24:14.000Z,1017.30
2022-10-26T01:25:12.000Z,1017.35
2022-10-26T01:26:02.000Z,1017.34
2022-10-26T01:27:14.000Z,1017.36
2022-10-26T01:27:52.000Z,1017.35
2022-10-26T01:29:02.000Z,1017.34
2022-10-26T01:30:12.000Z,1017.31
2022-10-26T01:30:56.000Z,1017.30
2022-10-26T01:32:02.000Z,1017.26
2022-10-26T01:33:01.000Z,1017.24
2022-10-26T01:34:02.000Z,1017.23
2022-10-26T01:35:15.000Z,1017.21
2022-10-26T01:36:01.000Z,1017.22
2022-10-26T01:36:56.000Z,1017.19
2022-10-26T01:38:01.000Z,1017.12
2022-10-26T01:39:01.000Z,1017.11
2022-10-26T01:39:59.000Z,1017.07
2022-10-26T01:41:01.000Z,1017.04
2022-10-26T01:41:57.000Z,1017.01
2022-10-26T01:42:54.000Z,1016.97
2022-10-26T01:43:59.000Z,1016.99
2022-10-26T01:44:59.000Z,1016.92
2022-10-26T01:45:53.000Z,1016.98
2022-10-26T01:46:53.000Z,1016.92
2022-10-26T01:47:54.000Z,1016.89
2022-10-26T01:48:56.000Z,1016.86
2022-10-26T01:49:56.000Z,1016.82
2022-10-26T01:50:54.000Z,1016.82
2022-10-26T01:51:51.000Z,1016.80
2022-10-26T01:52:52.000Z,1016.81
2022-10-26T01:53:51.000Z,1016.83
2022-10-26T01:54:59.000Z,1016.82
2022-10-26T01:55:53.000Z,1016.80
2022-10-26T01:56:55.000Z,1016.82
2022-10-26T01:58:00.000Z,1016.77
2022-10-26T01:59:14.000Z,1016.75
2022-10-26T02:00:08.000Z,1016.73
2022-10-26T02:01:00.000Z,1016.76
2022-10-26T02:02:16.000Z,1016.76
2022-10-26T02:03:02.000Z,1016.79
2022-10-26T02:04:02.000Z,1016.79
2022-10-26T02:05:14.000Z,1016.84
2022-10-26T02:06:15.000Z,1016.88
2022-10-26T02:07:01.000Z,1016.90
2022-10-26T02:08:04.000Z,1016.93
2022-10-26T02:09:05.000Z,1016.99
2022-10-26T02:10:23.000Z,1016.94
2022-10-26T02:11:06.000Z,1016.95
2022-10-26T02:11:52.000Z,1016.99
2022-10-26T02:13:01.000Z,1017.07
2022-10-26T02:14:05.000Z,1017.09
2022-10-26T02:15:02.000Z,1017.04
2022-10-26T02:16:03.000Z,1017.03
2022-10-26T02:17:03.000Z,1017.05
2022-10-26T02:18:10.000Z,1017.04
2022-10-26T02:19:04.000Z,1017.02
2022-10-26T02:20:02.000Z,1017.03
2022-10-26T02:20:59.000Z,1017.01
2022-10-26T02:22:00.000Z,1017.01
2022-10-26T02:22:54.000Z,1017.04
2022-10-26T02:23:54.000Z,1017.06
2022-10-26T02:24:53.000Z,1017.10
2022-10-26T02:25:56.000Z,1017.12
2022-10-26T02:26:54.000Z,1017.13
2022-10-26T02:27:59.000Z,1017.15
2022-10-26T02:28:56.000Z,1017.17
2022-10-26T02:29:54.000Z,1017.17
2022-10-26T02:30:54.000Z,1017.15
2022-10-26T02:31:53.000Z,1017.16
2022-10-26T02:32:54.000Z,1017.13
2022-10-26T02:33:55.000Z,1017.12
2022-10-26T02:34:55.000Z,1017.16
2022-10-26T02:35:54.000Z,1017.16
2022-10-26T02:36:55.000Z,1017.17
2022-10-26T02:37:55.000Z,1017.16
2022-10-26T02:38:52.000Z,1017.12
2022-10-26T02:39:54.000Z,1017.16
2022-10-26T02:40:53.000Z,1017.11
2022-10-26T02:41:54.000Z,1017.11
2022-10-26T02:42:56.000Z,1017.10
2022-10-26T02:44:00.000Z,1017.09
2022-10-26T02:44:59.000Z,1017.11
2022-10-26T02:45:57.000Z,1017.16
2022-10-26T02:46:53.000Z,1017.17
2022-10-26T02:47:53.000Z,1017.19
2022-10-26T02:48:53.000Z,1017.14
2022-10-26T02:49:53.000Z,1017.13
2022-10-26T02:51:09.000Z,1017.11
2022-10-26T02:52:03.000Z,1017.13
2022-10-26T02:53:12.000Z,1017.13
2022-10-26T02:53:57.000Z,1017.11
2022-10-26T02:55:04.000Z,1017.13
2022-10-26T02:55:52.000Z,1017.09
2022-10-26T02:57:28.000Z,1017.12
2022-10-26T02:58:00.000Z,1017.11
2022-10-26T02:58:59.000Z,1017.08
2022-10-26T02:59:52.000Z,1017.08
2022-10-26T03:00:52.000Z,1017.06
2022-10-26T03:01:52.000Z,1017.05
2022-10-26T03:02:55.000Z,1017.06
2022-10-26T03:03:56.000Z,1017.06
2022-10-26T03:04:54.000Z,1017.09
2022-10-26T03:05:52.000Z,1017.12
2022-10-26T03:06:53.000Z,1017.20
2022-10-26T03:07:53.000Z,1017.31
2022-10-26T03:08:52.000Z,1017.36
2022-10-26T03:09:52.000Z,1017.41
2022-10-26T03:10:52.000Z,1017.41
2022-10-26T03:11:52.000Z,1017.40
2022-10-26T03:12:52.000Z,1017.40
2022-10-26T03:13:52.000Z,1017.42
2022-10-26T03:14:52.000Z,1017.42
2022-10-26T03:15:55.000Z,1017.51
2022-10-26T03:16:52.000Z,1017.54
2022-10-26T03:17:52.000Z,1017.51
2022-10-26T03:18:52.000Z,1017.54
2022-10-26T03:19:52.000Z,1017.53
2022-10-26T03:20:52.000Z,1017.52
2022-10-26T03:21:52.000Z,1017.51
2022-10-26T03:22:52.000Z,1017.52
2022-10-26T03:23:52.000Z,1017.55
2022-10-26T03:24:52.000Z,1017.51
2022-10-26T03:25:57.000Z,1017.48
2022-10-26T03:26:52.000Z,1017.43
2022-10-26T03:28:00.000Z,1017.45
2022-10-26T03:28:52.000Z,1017.41
2022-10-26T03:29:52.000Z,1017.37
2022-10-26T03:30:52.000Z,1017.35
2022-10-26T03:31:54.000Z,1017.35
2022-10-26T03:32:52.000Z,1017.31
2022-10-26T03:33:52.000Z,1017.27
2022-10-26T03:34:51.000Z,1017.24
2022-10-26T03:35:55.000Z,1017.18
2022-10-26T03:36:52.000Z,1017.13
2022-10-26T03:37:52.000Z,1017.13
2022-10-26T03:38:51.000Z,1017.15
2022-10-26T03:39:52.000Z,1017.11
2022-10-26T03:40:52.000Z,1017.11
2022-10-26T03:41:52.000Z,1017.10
2022-10-26T03:42:51.000Z,1017.10
2022-10-26T03:43:52.000Z,1017.10
2022-10-26T03:44:51.000Z,1017.04
2022-10-26T03:45:52.000Z,1017.08
2022-10-26T03:46:52.000Z,1017.11
2022-10-26T03:47:52.000Z,1017.16
2022-10-26T03:48:52.000Z,1017.22
2022-10-26T03:49:51.000Z,1017.27
2022-10-26T03:50:56.000Z,1017.27
2022-10-26T03:51:52.000Z,1017.27
2022-10-26T03:52:51.000Z,1017.23
2022-10-26T03:53:52.000Z,1017.24
2022-10-26T03:54:51.000Z,1017.25
2022-10-26T03:55:52.000Z,1017.26
2022-10-26T03:56:51.000Z,1017.31
2022-10-26T03:57:51.000Z,1017.32
2022-10-26T03:58:52.000Z,1017.29
2022-10-26T03:59:51.000Z,1017.31
2022-10-26T04:00:52.000Z,1017.32
2022-10-26T04:01:51.000Z,1017.39
2022-10-26T04:02:54.000Z,1017.39
2022-10-26T04:03:51.000Z,1017.39
2022-10-26T04:04:52.000Z,1017.31
2022-10-26T04:05:51.000Z,1017.30
2022-10-26T04:06:52.000Z,1017.28
2022-10-26T04:07:53.000Z,1017.27
2022-10-26T04:08:56.000Z,1017.26
2022-10-26T04:09:51.000Z,1017.28
2022-10-26T04:10:51.000Z,1017.30
2022-10-26T04:11:51.000Z,1017.30
2022-10-26T04:12:52.000Z,1017.27
2022-10-26T04:13:52.000Z,1017.30
2022-10-26T04:14:52.000Z,1017.29
2022-10-26T04:15:51.000Z,1017.23
2022-10-26T04:16:51.000Z,1017.22
2022-10-26T04:17:57.000Z,1017.24
2022-10-26T04:18:51.000Z,1017.23
2022-10-26T04:19:52.000Z,1017.25
2022-10-26T04:20:51.000Z,1017.28
2022-10-26T04:21:51.000Z,1017.29
2022-10-26T04:22:59.000Z,1017.29
2022-10-26T04:23:51.000Z,1017.32
2022-10-26T04:24:52.000Z,1017.30
2022-10-26T04:25:51.000Z,1017.29
2022-10-26T04:26:51.000Z,1017.32
2022-10-26T04:27:52.000Z,1017.28
2022-10-26T04:28:51.000Z,1017.30
2022-10-26T04:29:51.000Z,1017.29
2022-10-26T04:30:51.000Z,1017.31
2022-10-26T04:31:51.000Z,1017.29
2022-10-26T04:32:52.000Z,1017.29
2022-10-26T04:33:51.000Z,1017.26
2022-10-26T04:34:53.000Z,1017.27
2022-10-26T04:35:57.000Z,1017.24
2022-10-26T04:36:51.000Z,1017.23
2022-10-26T04:37:57.000Z,1017.25
2022-10-26T04:38:51.000Z,1017.19
2022-10-26T04:39:51.000Z,1017.20
2022-10-26T04:40:51.000Z,1017.14
2022-10-26T04:41:52.000Z,1017.12
2022-10-26T04:42:52.000Z,1017.08
2022-10-26T04:43:51.000Z,1017.08
2022-10-26T04:44:51.000Z,1017.10
2022-10-26T04:45:56.000Z,1017.13
2022-10-26T04:46:51.000Z,1017.15
2022-10-26T04:48:07.000Z,1017.18
2022-10-26T04:48:51.000Z,1017.20
2022-10-26T04:49:51.000Z,1017.21
2022-10-26T04:50:51.000Z,1017.25
2022-10-26T04:51:51.000Z,1017.27
2022-10-26T04:52:52.000Z,1017.29
2022-10-26T04:53:52.000Z,1017.30
2022-10-26T04:54:51.000Z,1017.27
2022-10-26T04:55:56.000Z,1017.26
2022-10-26T04:56:51.000Z,1017.22
2022-10-26T04:57:51.000Z,1017.17
2022-10-26T04:58:52.000Z,1017.11
2022-10-26T04:59:51.000Z,1017.09
2022-10-26T05:00:52.000Z,1017.06
2022-10-26T05:01:51.000Z,1017.03
2022-10-26T05:03:00.000Z,1017.02
2022-10-26T05:03:52.000Z,1017.06
2022-10-26T05:04:51.000Z,1017.07
2022-10-26T05:05:51.000Z,1017.04
2022-10-26T05:06:52.000Z,1017.05
2022-10-26T05:07:55.000Z,1017.03
2022-10-26T05:08:51.000Z,1017.05
2022-10-26T05:09:52.000Z,1017.06
2022-10-26T05:10:53.000Z,1017.05
2022-10-26T05:11:51.000Z,1017.05
2022-10-26T05:12:53.000Z,1017.07
2022-10-26T05:13:52.000Z,1017.09
2022-10-26T05:14:51.000Z,1017.10
2022-10-26T05:15:52.000Z,1017.17
2022-10-26T05:16:54.000Z,1017.15
2022-10-26T05:18:01.000Z,1017.19
2022-10-26T05:18:51.000Z,1017.24
2022-10-26T05:19:54.000Z,1017.25
2022-10-26T05:20:52.000Z,1017.24
2022-10-26T05:21:52.000Z,1017.27
2022-10-26T05:22:51.000Z,1017.28
2022-10-26T05:23:53.000Z,1017.26
2022-10-26T05:24:51.000Z,1017.24
2022-10-26T05:25:53.000Z,1017.24
2022-10-26T05:26:51.000Z,1017.26
2022-10-26T05:27:56.000Z,1017.31
2022-10-26T05:28:52.000Z,1017.39
2022-10-26T05:29:52.000Z,1017.42
2022-10-26T05:30:51.000Z,1017.51
2022-10-26T05:31:52.000Z,1017.51
2022-10-26T05:32:53.000Z,1017.53
2022-10-26T05:33:51.000Z,1017.59
2022-10-26T05:34:51.000Z,1017.58
2022-10-26T05:35:54.000Z,1017.58
2022-10-26T05:36:52.000Z,1017.60
2022-10-26T05:37:52.000Z,1017.62
2022-10-26T05:38:51.000Z,1017.61
2022-10-26T05:39:51.000Z,1017.65
2022-10-26T05:40:53.000Z,1017.69
2022-10-26T05:41:51.000Z,1017.68
2022-10-26T05:42:58.000Z,1017.71
2022-10-26T05:43:52.000Z,1017.72
2022-10-26T05:44:51.000Z,1017.74
2022-10-26T05:45:52.000Z,1017.70
2022-10-26T05:46:51.000Z,1017.65
2022-10-26T05:47:52.000Z,1017.65
2022-10-26T05:48:52.000Z,1017.66
2022-10-26T05:49:51.000Z,1017.69
2022-10-26T05:50:52.000Z,1017.73
2022-10-26T05:51:51.000Z,1017.72
2022-10-26T05:52:52.000Z,1017.71
2022-10-26T05:53:55.000Z,1017.72
2022-10-26T05:54:52.000Z,1017.70
2022-10-26T05:55:53.000Z,1017.69
2022-10-26T05:56:52.000Z,1017.72
2022-10-26T05:57:52.000Z,1017.72
2022-10-26T05:58:52.000Z,1017.75
2022-10-26T05:59:52.000Z,1017.78
2022-10-26T06:01:24.000Z,1017.84
2022-10-26T06:02:02.000Z,1017.87
2022-10-26T06:03:02.000Z,1017.88
2022-10-26T06:04:15.000Z,1017.88
2022-10-26T06:04:55.000Z,1017.90
2022-10-26T06:05:57.000Z,1017.86
2022-10-26T06:06:52.000Z,1017.88
2022-10-26T06:07:52.000Z,1017.80
2022-10-26T06:08:51.000Z,1017.84
2022-10-26T06:09:51.000Z,1017.81
2022-10-26T06:10:54.000Z,1017.87
2022-10-26T06:11:51.000Z,1017.91
2022-10-26T06:12:51.000Z,1017.92
2022-10-26T06:13:53.000Z,1017.93
2022-10-26T06:14:51.000Z,1017.90
2022-10-26T06:16:06.000Z,1017.94
2022-10-26T06:17:05.000Z,1018.00
2022-10-26T06:18:02.000Z,1017.99
2022-10-26T06:19:17.000Z,1018.01
2022-10-26T06:20:10.000Z,1018.04
2022-10-26T06:21:06.000Z,1018.05
2022-10-26T06:22:01.000Z,1018.09
2022-10-26T06:23:14.000Z,1018.11
2022-10-26T06:24:01.000Z,1018.14
2022-10-26T06:25:01.000Z,1018.15
2022-10-26T06:26:14.000Z,1018.18
2022-10-26T06:27:01.000Z,1018.20
2022-10-26T06:28:09.000Z,1018.24
2022-10-26T06:29:11.000Z,1018.25
2022-10-26T06:30:01.000Z,1018.26
2022-10-26T06:30:51.000Z,1018.29
2022-10-26T06:31:51.000Z,1018.27
2022-10-26T06:32:53.000Z,1018.28
2022-10-26T06:33:56.000Z,1018.28
2022-10-26T06:35:09.000Z,1018.29
2022-10-26T06:36:03.000Z,1018.27
2022-10-26T06:36:52.000Z,1018.34
2022-10-26T06:37:54.000Z,1018.30
2022-10-26T06:39:10.000Z,1018.32
2022-10-26T06:39:53.000Z,1018.32
2022-10-26T06:40:54.000Z,1018.35
2022-10-26T06:41:53.000Z,1018.30
2022-10-26T06:42:51.000Z,1018.37
2022-10-26T06:43:51.000Z,1018.37
2022-10-26T06:44:51.000Z,1018.38
2022-10-26T06:46:01.000Z,1018.38
2022-10-26T06:47:03.000Z,1018.36
2022-10-26T06:48:01.000Z,1018.35
2022-10-26T06:49:11.000Z,1018.36
2022-10-26T06:50:01.000Z,1018.37
2022-10-26T06:50:52.000Z,1018.38
2022-10-26T06:52:11.000Z,1018.38
2022-10-26T06:53:20.000Z,1018.39
2022-10-26T06:54:09.000Z,1018.41
2022-10-26T06:54:53.000Z,1018.42
2022-10-26T06:55:52.000Z,1018.40
2022-10-26T06:56:51.000Z,1018.40
2022-10-26T06:57:51.000Z,1018.39
2022-10-26T06:58:54.000Z,1018.38
2022-10-26T06:59:54.000Z,1018.39
2022-10-26T07:00:53.000Z,1018.41
2022-10-26T07:01:51.000Z,1018.41
2022-10-26T07:02:51.000Z,1018.40
2022-10-26T07:03:51.000Z,1018.42
2022-10-26T07:04:51.000Z,1018.45
2022-10-26T07:05:51.000Z,1018.44
2022-10-26T07:06:51.000Z,1018.46
2022-10-26T07:07:51.000Z,1018.49
2022-10-26T07:08:51.000Z,1018.52
2022-10-26T07:09:52.000Z,1018.49
2022-10-26T07:10:51.000Z,1018.53
2022-10-26T07:11:51.000Z,1018.57
2022-10-26T07:12:51.000Z,1018.54
2022-10-26T07:13:51.000Z,1018.60
2022-10-26T07:14:51.000Z,1018.62
2022-10-26T07:15:51.000Z,1018.73
2022-10-26T07:16:53.000Z,1018.70
2022-10-26T07:17:51.000Z,1018.74
2022-10-26T07:18:52.000Z,1018.75
2022-10-26T07:19:51.000Z,1018.78
2022-10-26T07:20:51.000Z,1018.82
2022-10-26T07:21:56.000Z,1018.84
2022-10-26T07:22:55.000Z,1018.83
2022-10-26T07:23:54.000Z,1018.83
2022-10-26T07:24:52.000Z,1018.86
2022-10-26T07:25:51.000Z,1018.86
2022-10-26T07:26:52.000Z,1018.88
2022-10-26T07:27:56.000Z,1018.86
2022-10-26T07:28:51.000Z,1018.92
2022-10-26T07:29:51.000Z,1018.98
2022-10-26T07:30:51.000Z,1018.99
2022-10-26T07:31:52.000Z,1019.02
2022-10-26T07:33:00.000Z,1019.05
2022-10-26T07:33:52.000Z,1019.10
2022-10-26T07:34:51.000Z,1019.10
2022-10-26T07:35:52.000Z,1019.17
2022-10-26T07:36:51.000Z,1019.15
2022-10-26T07:37:56.000Z,1019.13
2022-10-26T07:38:52.000Z,1019.12
2022-10-26T07:39:51.000Z,1019.15
2022-10-26T07:40:52.000Z,1019.11
2022-10-26T07:41:52.000Z,1019.06
2022-10-26T07:42:55.000Z,1019.12
2022-10-26T07:43:51.000Z,1019.12
2022-10-26T07:44:51.000Z,1019.01
2022-10-26T07:45:51.000Z,1019.02
2022-10-26T07:46:51.000Z,1019.04
2022-10-26T07:47:52.000Z,1019.00
2022-10-26T07:48:52.000Z,1019.02
2022-10-26T07:49:51.000Z,1019.08
2022-10-26T07:50:51.000Z,1019.13
2022-10-26T07:51:51.000Z,1019.02
2022-10-26T07:52:51.000Z,1019.06
2022-10-26T07:53:51.000Z,1019.13
2022-10-26T07:54:51.000Z,1019.03
2022-10-26T07:55:55.000Z,1019.08
2022-10-26T07:56:51.000Z,1019.08
2022-10-26T07:57:53.000Z,1019.08
2022-10-26T07:58:53.000Z,1019.06
2022-10-26T07:59:51.000Z,1019.09
2022-10-26T08:00:52.000Z,1019.07
2022-10-26T08:01:51.000Z,1019.09
2022-10-26T08:02:52.000Z,1019.13
2022-10-26T08:03:53.000Z,1019.13
2022-10-26T08:04:51.000Z,1019.12
2022-10-26T08:05:54.000Z,1019.09
2022-10-26T08:06:52.000Z,1019.16
2022-10-26T08:07:51.000Z,1019.17
2022-10-26T08:08:51.000Z,1019.17
2022-10-26T08:09:52.000Z,1019.20
2022-10-26T08:10:52.000Z,1019.21
2022-10-26T08:11:51.000Z,1019.18
2022-10-26T08:12:52.000Z,1019.21
2022-10-26T08:13:53.000Z,1019.21
2022-10-26T08:14:51.000Z,1019.22
2022-10-26T08:15:58.000Z,1019.18
2022-10-26T08:16:51.000Z,1019.16
2022-10-26T08:17:51.000Z,1019.22
2022-10-26T08:18:51.000Z,1019.19
2022-10-26T08:19:51.000Z,1019.17
2022-10-26T08:20:52.000Z,1019.18
2022-10-26T08:21:51.000Z,1019.17
2022-10-26T08:22:55.000Z,1019.20
2022-10-26T08:23:52.000Z,1019.22
2022-10-26T08:24:51.000Z,1019.23
2022-10-26T08:25:56.000Z,1019.22
2022-10-26T08:26:51.000Z,1019.23
2022-10-26T08:27:52.000Z,1019.24
2022-10-26T08:28:52.000Z,1019.27
2022-10-26T08:29:51.000Z,1019.24
2022-10-26T08:30:52.000Z,1019.25
2022-10-26T08:31:52.000Z,1019.26
2022-10-26T08:33:01.000Z,1019.25
2022-10-26T08:33:51.000Z,1019.26
2022-10-26T08:34:51.000Z,1019.28
2022-10-26T08:35:56.000Z,1019.31
2022-10-26T08:36:51.000Z,1019.30
2022-10-26T08:37:52.000Z,1019.33
2022-10-26T08:38:52.000Z,1019.34
2022-10-26T08:39:51.000Z,1019.34
2022-10-26T08:40:53.000Z,1019.34
2022-10-26T08:42:00.000Z,1019.36
2022-10-26T08:42:58.000Z,1019.32
2022-10-26T08:43:57.000Z,1019.39
2022-10-26T08:44:56.000Z,1019.41
2022-10-26T08:45:59.000Z,1019.40
2022-10-26T08:46:58.000Z,1019.39
2022-10-26T08:47:57.000Z,1019.36
2022-10-26T08:49:01.000Z,1019.46
2022-10-26T08:50:12.000Z,1019.45
2022-10-26T08:51:00.000Z,1019.48
2022-10-26T08:51:56.000Z,1019.47
2022-10-26T08:53:10.000Z,1019.47
2022-10-26T08:54:12.000Z,1019.50
2022-10-26T08:54:55.000Z,1019.50
2022-10-26T08:56:00.000Z,1019.50
2022-10-26T08:56:56.000Z,1019.50
2022-10-26T08:57:52.000Z,1019.53
2022-10-26T08:59:05.000Z,1019.53
2022-10-26T08:59:59.000Z,1019.61
2022-10-26T09:00:52.000Z,1019.58
2022-10-26T09:01:52.000Z,1019.60
2022-10-26T09:02:52.000Z,1019.56
2022-10-26T09:03:51.000Z,1019.55
2022-10-26T09:04:55.000Z,1019.53
2022-10-26T09:06:06.000Z,1019.56
2022-10-26T09:07:10.000Z,1019.60
2022-10-26T09:08:02.000Z,1019.62
2022-10-26T09:09:01.000Z,1019.58
2022-10-26T09:10:15.000Z,1019.59
2022-10-26T09:11:22.000Z,1019.57
2022-10-26T09:12:20.000Z,1019.57
2022-10-26T09:13:01.000Z,1019.59
2022-10-26T09:14:00.000Z,1019.62
2022-10-26T09:15:14.000Z,1019.58
2022-10-26T09:16:11.000Z,1019.61
2022-10-26T09:17:14.000Z,1019.65
2022-10-26T09:18:01.000Z,1019.68
2022-10-26T09:19:21.000Z,1019.73
2022-10-26T09:20:21.000Z,1019.74
2022-10-26T09:21:18.000Z,1019.71
2022-10-26T09:22:06.000Z,1019.72
2022-10-26T09:23:11.000Z,1019.72
2022-10-26T09:24:10.000Z,1019.79
2022-10-26T09:24:54.000Z,1019.73
2022-10-26T09:25:57.000Z,1019.76
2022-10-26T09:26:53.000Z,1019.76
2022-10-26T09:27:58.000Z,1019.74
2022-10-26T09:28:52.000Z,1019.78
2022-10-26T09:29:54.000Z,1019.72
2022-10-26T09:30:51.000Z,1019.75
2022-10-26T09:31:55.000Z,1019.77
2022-10-26T09:33:02.000Z,1019.80
2022-10-26T09:33:53.000Z,1019.84
2022-10-26T09:34:58.000Z,1019.79
2022-10-26T09:35:58.000Z,1019.80
2022-10-26T09:36:53.000Z,1019.79
2022-10-26T09:37:56.000Z,1019.79
2022-10-26T09:39:00.000Z,1019.81
2022-10-26T09:40:05.000Z,1019.89
2022-10-26T09:41:02.000Z,1019.83
2022-10-26T09:41:58.000Z,1019.86
2022-10-26T09:43:00.000Z,1019.83
2022-10-26T09:44:09.000Z,1019.87
2022-10-26T09:45:00.000Z,1019.92
2022-10-26T09:45:52.000Z,1019.90
2022-10-26T09:47:02.000Z,1019.86
2022-10-26T09:47:54.000Z,1019.87
2022-10-26T09:48:56.000Z,1019.88
2022-10-26T09:50:02.000Z,1019.86
2022-10-26T09:50:51.000Z,1019.88
2022-10-26T09:51:51.000Z,1019.85
2022-10-26T09:52:51.000Z,1019.88
2022-10-26T09:53:54.000Z,1019.88
2022-10-26T09:54:51.000Z,1019.83
2022-10-26T09:56:01.000Z,1019.82
2022-10-26T09:56:58.000Z,1019.82
2022-10-26T09:57:59.000Z,1019.83
2022-10-26T09:58:55.000Z,1019.86
2022-10-26T09:59:54.000Z,1019.86
2022-10-26T10:00:52.000Z,1019.81
2022-10-26T10:01:51.000Z,1019.82
2022-10-26T10:02:56.000Z,1019.81
2022-10-26T10:04:01.000Z,1019.81
2022-10-26T10:04:51.000Z,1019.89
2022-10-26T10:05:52.000Z,1019.95
2022-10-26T10:07:11.000Z,1019.97
2022-10-26T10:08:13.000Z,1019.95
2022-10-26T10:09:01.000Z,1019.92
2022-10-26T10:10:01.000Z,1019.87
2022-10-26T10:10:53.000Z,1019.85
2022-10-26T10:12:00.000Z,1019.88
2022-10-26T10:12:51.000Z,1019.91
2022-10-26T10:13:51.000Z,1019.92
2022-10-26T10:14:57.000Z,1019.92
2022-10-26T10:15:55.000Z,1019.90
2022-10-26T10:16:57.000Z,1019.88
2022-10-26T10:17:53.000Z,1019.84
2022-10-26T10:18:54.000Z,1019.87
2022-10-26T10:19:52.000Z,1019.87
2022-10-26T10:20:56.000Z,1019.93
2022-10-26T10:21:58.000Z,1019.90
2022-10-26T10:23:01.000Z,1019.90
2022-10-26T10:23:53.000Z,1019.92
2022-10-26T10:24:59.000Z,1019.96
2022-10-26T10:25:58.000Z,1019.90
2022-10-26T10:27:00.000Z,1019.96
2022-10-26T10:27:52.000Z,1019.95
2022-10-26T10:28:58.000Z,1019.95
2022-10-26T10:29:53.000Z,1019.97
2022-10-26T10:30:58.000Z,1020.00
2022-10-26T10:31:56.000Z,1019.99
2022-10-26T10:33:01.000Z,1019.98
2022-10-26T10:33:51.000Z,1020.02
2022-10-26T10:34:56.000Z,1020.03
2022-10-26T10:35:51.000Z,1020.04
2022-10-26T10:36:52.000Z,1020.05
2022-10-26T10:37:51.000Z,1020.04
2022-10-26T10:38:52.000Z,1020.01
2022-10-26T10:39:57.000Z,1020.02
2022-10-26T10:40:57.000Z,1020.03
2022-10-26T10:41:52.000Z,1020.01
2022-10-26T10:43:01.000Z,1020.03
2022-10-26T10:44:18.000Z,1020.03
2022-10-26T10:44:54.000Z,1020.09
2022-10-26T10:45:55.000Z,1020.10
2022-10-26T10:47:03.000Z,1020.12
2022-10-26T10:48:01.000Z,1020.14
2022-10-26T10:48:59.000Z,1020.16
2022-10-26T10:49:56.000Z,1020.18
2022-10-26T10:51:01.000Z,1020.21
2022-10-26T10:51:54.000Z,1020.21
2022-10-26T10:52:52.000Z,1020.18
2022-10-26T10:53:53.000Z,1020.23
2022-10-26T10:55:10.000Z,1020.20
2022-10-26T10:56:02.000Z,1020.23
2022-10-26T10:57:07.000Z,1020.27
2022-10-26T10:58:14.000Z,1020.26
2022-10-26T10:59:15.000Z,1020.29
2022-10-26T11:00:02.000Z,1020.30
2022-10-26T11:00:54.000Z,1020.31
2022-10-26T11:02:02.000Z,1020.31
2022-10-26T11:03:02.000Z,1020.28
2022-10-26T11:04:02.000Z,1020.28
2022-10-26T11:05:11.000Z,1020.27
2022-10-26T11:06:02.000Z,1020.32
2022-10-26T11:06:55.000Z,1020.29
2022-10-26T11:08:06.000Z,1020.33
2022-10-26T11:09:02.000Z,1020.32
2022-10-26T11:09:53.000Z,1020.26
2022-10-26T11:10:59.000Z,1020.30
2022-10-26T11:11:56.000Z,1020.32
2022-10-26T11:12:57.000Z,1020.32
2022-10-26T11:14:00.000Z,1020.34
2022-10-26T11:15:01.000Z,1020.39
2022-10-26T11:15:57.000Z,1020.39
2022-10-26T11:17:00.000Z,1020.40
2022-10-26T11:18:01.000Z,1020.40
2022-10-26T11:19:06.000Z,1020.41
2022-10-26T11:19:55.000Z,1020.42
2022-10-26T11:20:58.000Z,1020.45
2022-10-26T11:21:52.000Z,1020.47
2022-10-26T11:23:08.000Z,1020.49
2022-10-26T11:24:01.000Z,1020.50
2022-10-26T11:25:03.000Z,1020.51
2022-10-26T11:26:02.000Z,1020.52
2022-10-26T11:27:02.000Z,1020.49
2022-10-26T11:28:00.000Z,1020.49
2022-10-26T11:29:00.000Z,1020.51
2022-10-26T11:30:01.000Z,1020.47
2022-10-26T11:30:58.000Z,1020.48
2022-10-26T11:32:01.000Z,1020.47
2022-10-26T11:33:01.000Z,1020.44
2022-10-26T11:34:14.000Z,1020.43
2022-10-26T11:35:13.000Z,1020.45
2022-10-26T11:36:03.000Z,1020.49
2022-10-26T11:37:00.000Z,1020.49
2022-10-26T11:38:08.000Z,1020.50
2022-10-26T11:39:03.000Z,1020.51
2022-10-26T11:40:00.000Z,1020.54
2022-10-26T11:41:04.000Z,1020.54
2022-10-26T11:42:02.000Z,1020.55
2022-10-26T11:43:05.000Z,1020.53
2022-10-26T11:44:02.000Z,1020.51
2022-10-26T11:45:01.000Z,1020.54
2022-10-26T11:46:02.000Z,1020.55
2022-10-26T11:46:56.000Z,1020.57
2022-10-26T11:48:00.000Z,1020.57
2022-10-26T11:49:09.000Z,1020.59
2022-10-26T11:50:03.000Z,1020.55
2022-10-26T11:50:56.000Z,1020.58
2022-10-26T11:52:03.000Z,1020.57
2022-10-26T11:53:00.000Z,1020.59
2022-10-26T11:53:52.000Z,1020.57
2022-10-26T11:54:55.000Z,1020.50
2022-10-26T11:55:53.000Z,1020.54
2022-10-26T11:56:54.000Z,1020.54
2022-10-26T11:57:53.000Z,1020.56
2022-10-26T11:58:52.000Z,1020.55
2022-10-26T11:59:55.000Z,1020.54
2022-10-26T12:00:57.000Z,1020.60
2022-10-26T12:02:09.000Z,1020.57
2022-10-26T12:02:59.000Z,1020.59
2022-10-26T12:03:53.000Z,1020.64
2022-10-26T12:04:58.000Z,1020.61
2022-10-26T12:05:52.000Z,1020.67